Lopez Island, Washington
Current Conditions -  °F | °C
As of 10:34 PM on Tuesday 25 Nov 2014 (Local Time) from KFHR Reporting Station
Light Rain Light Rain  
Wind Chill: 45°   Ceiling: 400
Heat Index: 45°   Visibility: 3mi
Dew Point: 44°   Wind: 3mph
Humidity: 97%   Direction: 50°NE
Pressure: 30.14"   Gusts: NA
Location:  48.51°N, 122.91°W
Report Text: KFHR 260634Z AUTO 05003KT 3SM -RA BR OVC004 07/07 A3014 RMK AO2 P0000 T00720067
Loading
Personal Weather Stations






























Interactive Weather Map New forecast layout! Learn more

10-Day Weather Forecast

Advertisements
Track Severe Weather on mobile